Time;durP1;ratioP1;P1;durP2;ratioP2;P2;SDS_P1;SDS_P2;PMS_P1;PMS_P2;Temp;Humidity;BMP_temperature;BMP_pressure;BME280_temperature;BME280_humidity;BME280_pressure;Samples;Min_cycle;Max_cycle;Signal;HPM_P1;HPM_P2
2021/01/21 00:02:24;;;;;;;4.63;3.25;;;;;;;;;;5032692;28;20037;-56
2021/01/21 00:05:21;;;;;;;4.77;3.50;;;;;;;;;;5058050;28;20044;-55
2021/01/21 00:07:50;;;;;;;4.53;3.37;;;;;;;;;;5012488;28;20069;-57
2021/01/21 00:10:49;;;;;;;4.77;3.23;;;;;;;;;;5012890;28;20471;-54
2021/01/21 00:13:30;;;;;;;4.37;3.70;;;;;;;;;;5012702;28;20026;-56
2021/01/21 00:15:57;;;;;;;4.23;3.60;;;;;;;;;;5012975;28;20045;-57
2021/01/21 00:19:01;;;;;;;7.63;4.80;;;;;;;;;;5013326;28;20030;-55
2021/01/21 00:21:43;;;;;;;7.13;5.50;;;;;;;;;;4994609;28;20046;-57
2021/01/21 00:24:31;;;;;;;7.90;5.60;;;;;;;;;;5012626;28;20105;-57
2021/01/21 00:30:01;;;;;;;7.23;5.30;;;;;;;;;;5012440;28;20159;-58
2021/01/21 00:32:50;;;;;;;4.73;3.97;;;;;;;;;;5012872;28;20041;-55
2021/01/21 00:43:49;;;;;;;6.07;4.30;;;;;;;;;;5015446;28;20041;-58
2021/01/21 00:46:34;;;;;;;6.13;3.93;;;;;;;;;;5016224;28;20026;-55
2021/01/21 00:52:15;;;;;;;6.27;3.20;;;;;;;;;;5013805;28;20472;-57
2021/01/21 00:55:08;;;;;;;4.37;3.17;;;;;;;;;;5015138;28;20067;-56
2021/01/21 00:57:55;;;;;;;5.17;2.80;;;;;;;;;;5015429;28;20076;-57
2021/01/21 01:03:32;;;;;;;3.60;2.23;;;;;;;;;;5019151;28;20109;-57
2021/01/21 01:06:12;;;;;;;3.27;2.07;;;;;;;;;;5054199;28;20064;-58
2021/01/21 01:11:54;;;;;;;;;;;;;;;;;;;;;
2021/01/21 01:14:40;;;;;;;3.73;2.57;;;;;;;;;;5055546;28;20124;-57
2021/01/21 01:17:19;;;;;;;4.97;2.30;;;;;;;;;;5064620;28;20064;-56
2021/01/21 01:20:07;;;;;;;4.30;1.70;;;;;;;;;;5054309;28;20052;-57
2021/01/21 01:22:54;;;;;;;3.50;1.70;;;;;;;;;;5054851;28;20033;-56
2021/01/21 01:26:04;;;;;;;4.20;1.97;;;;;;;;;;5065096;28;20037;-56
2021/01/21 01:28:43;;;;;;;3.87;2.67;;;;;;;;;;5036313;28;20124;-55
2021/01/21 01:34:20;;;;;;;5.63;2.33;;;;;;;;;;5046111;28;20029;-56
2021/01/21 01:37:22;;;;;;;;;;;;;;;;;;;;;
2021/01/21 01:39:52;;;;;;;4.60;2.65;;;;;;;;;;5056797;28;20127;-57
2021/01/21 01:42:39;;;;;;;2.80;1.42;;;;;;;;;;5054627;28;20017;-57
2021/01/21 01:45:10;;;;;;;2.65;1.75;;;;;;;;;;5034067;28;20057;-57
2021/01/21 01:47:47;;;;;;;2.90;1.52;;;;;;;;;;5035966;28;20467;-56
2021/01/21 01:50:27;;;;;;;2.88;1.10;;;;;;;;;;5054683;28;20714;-56
2021/01/21 01:56:35;;;;;;;3.45;1.50;;;;;;;;;;5054301;28;20040;-56
2021/01/21 01:59:02;;;;;;;2.75;1.45;;;;;;;;;;5054174;28;20033;-57
2021/01/21 02:01:53;;;;;;;3.85;1.85;;;;;;;;;;5055084;28;20037;-57
2021/01/21 02:04:30;;;;;;;3.30;2.30;;;;;;;;;;5054404;27;20053;-57
2021/01/21 02:07:17;;;;;;;;;;;;;;;;;;;;;
2021/01/21 02:10:11;;;;;;;2.90;1.88;;;;;;;;;;5054189;28;20112;-53
2021/01/21 02:13:03;;;;;;;3.60;1.90;;;;;;;;;;5054663;28;20037;-57
2021/01/21 02:15:53;;;;;;;3.97;1.80;;;;;;;;;;5054141;28;20029;-57
2021/01/21 02:18:32;;;;;;;2.75;1.73;;;;;;;;;;5054239;28;20053;-57
2021/01/21 02:21:26;;;;;;;3.15;2.35;;;;;;;;;;5053587;28;20534;-56
2021/01/21 02:24:17;;;;;;;5.83;2.60;;;;;;;;;;5053522;28;20032;-57
2021/01/21 02:27:03;;;;;;;3.75;2.65;;;;;;;;;;5053577;28;20036;-53
2021/01/21 02:29:34;;;;;;;4.65;2.33;;;;;;;;;;5053160;28;20025;-57
2021/01/21 02:32:20;;;;;;;3.03;2.10;;;;;;;;;;5053828;28;20116;-57
2021/01/21 02:35:21;;;;;;;3.75;1.48;;;;;;;;;;5035100;28;20032;-56
2021/01/21 02:38:10;;;;;;;2.75;1.80;;;;;;;;;;5052872;28;20033;-58
2021/01/21 02:40:51;;;;;;;2.83;1.77;;;;;;;;;;5035046;28;20033;-56
2021/01/21 02:43:36;;;;;;;1.88;1.23;;;;;;;;;;5052780;28;20033;-57
2021/01/21 02:46:35;;;;;;;1.80;1.02;;;;;;;;;;5053756;28;20021;-57
2021/01/21 02:49:13;;;;;;;1.83;0.88;;;;;;;;;;5053364;28;20032;-56
2021/01/21 02:51:48;;;;;;;1.52;0.75;;;;;;;;;;5053232;28;20043;-55
2021/01/21 02:54:36;;;;;;;1.10;0.60;;;;;;;;;;5035545;28;20411;-58
2021/01/21 03:01:08;;;;;;;4.35;1.98;;;;;;;;;;5065631;28;20085;-56
2021/01/21 03:03:38;;;;;;;3.42;2.20;;;;;;;;;;5060663;27;20044;-55
2021/01/21 03:06:28;;;;;;;3.00;1.60;;;;;;;;;;5034362;28;20024;-55
2021/01/21 03:09:25;;;;;;;2.10;1.45;;;;;;;;;;5052917;28;20032;-57
2021/01/21 03:12:11;;;;;;;2.22;1.08;;;;;;;;;;5051809;28;20029;-58
2021/01/21 03:15:04;;;;;;;7.22;1.33;;;;;;;;;;5052885;28;20456;-53
2021/01/21 03:18:08;;;;;;;1.90;1.13;;;;;;;;;;5051825;28;20048;-57
2021/01/21 03:20:43;;;;;;;4.18;1.38;;;;;;;;;;5072719;28;20105;-56
2021/01/21 03:23:18;;;;;;;1.60;0.80;;;;;;;;;;5051083;28;20123;-55
2021/01/21 03:26:11;;;;;;;1.80;0.55;;;;;;;;;;5072909;28;20119;-54
2021/01/21 03:31:39;;;;;;;1.17;0.68;;;;;;;;;;5058740;28;20106;-57
2021/01/21 03:34:50;;;;;;;2.28;0.77;;;;;;;;;;5052153;28;20474;-56
2021/01/21 03:37:25;;;;;;;1.58;0.55;;;;;;;;;;5072217;28;20098;-56
2021/01/21 03:42:56;;;;;;;1.13;0.60;;;;;;;;;;5052180;28;20041;-53
2021/01/21 03:45:29;;;;;;;1.33;0.60;;;;;;;;;;5052432;28;20032;-58
2021/01/21 03:48:16;;;;;;;2.08;0.88;;;;;;;;;;5033804;28;20036;-54
2021/01/21 03:50:49;;;;;;;7.63;0.82;;;;;;;;;;5051114;28;20029;-57
2021/01/21 03:56:16;;;;;;;;;;;;;;;;;;5052738;28;20111;-57
2021/01/21 03:59:02;;;;;;;;;;;;;;;;;;;;;
2021/01/21 04:01:34;;;;;;;1.60;0.85;;;;;;;;;;5051436;28;20414;-55
2021/01/21 04:04:13;;;;;;;1.40;0.90;;;;;;;;;;5051101;27;20435;-55
2021/01/21 04:06:52;;;;;;;1.13;0.73;;;;;;;;;;5051510;28;20124;-56
2021/01/21 04:09:39;;;;;;;2.13;0.60;;;;;;;;;;5051456;28;20405;-53
2021/01/21 04:18:22;;;;;;;1.60;0.68;;;;;;;;;;5026157;28;20041;-55
2021/01/21 04:20:56;;;;;;;2.00;1.02;;;;;;;;;;5051205;28;20032;-54
2021/01/21 04:23:43;;;;;;;;;;;;;;;;;;;;;
2021/01/21 04:26:31;;;;;;;3.17;0.80;;;;;;;;;;5050577;28;20084;-55
2021/01/21 04:29:17;;;;;;;0.95;0.55;;;;;;;;;;5050951;28;20021;-55
2021/01/21 04:32:00;;;;;;;0.80;0.40;;;;;;;;;;5032161;28;20030;-57
2021/01/21 04:35:00;;;;;;;1.77;0.60;;;;;;;;;;5031894;28;20025;-56
2021/01/21 04:37:44;;;;;;;1.60;0.63;;;;;;;;;;5050277;28;20462;-57
2021/01/21 04:40:24;;;;;;;1.08;0.47;;;;;;;;;;5031713;28;20040;-57
2021/01/21 04:42:53;;;;;;;2.28;0.98;;;;;;;;;;5050209;28;20085;-57
2021/01/21 04:45:41;;;;;;;;;;;;;;;;;;;;;
2021/01/21 04:48:24;;;;;;;2.10;0.60;;;;;;;;;;5054286;28;20059;-57
2021/01/21 04:51:05;;;;;;;2.17;0.47;;;;;;;;;;5031987;28;20025;-55
2021/01/21 04:53:31;;;;;;;1.05;0.57;;;;;;;;;;5050555;28;20022;-54
2021/01/21 04:56:14;;;;;;;0.88;0.40;;;;;;;;;;5049885;28;20029;-57
2021/01/21 04:58:52;;;;;;;1.25;0.45;;;;;;;;;;5031908;28;20073;-56
2021/01/21 05:01:59;;;;;;;0.93;0.40;;;;;;;;;;5050717;28;20029;-56
2021/01/21 05:05:11;;;;;;;0.60;0.28;;;;;;;;;;5049643;27;20057;-57
2021/01/21 05:07:47;;;;;;;1.67;0.70;;;;;;;;;;5050504;28;20022;-58
2021/01/21 05:10:33;;;;;;;1.38;0.30;;;;;;;;;;5050842;28;20029;-57
2021/01/21 05:13:23;;;;;;;0.57;0.28;;;;;;;;;;5032005;28;20029;-56
2021/01/21 05:16:00;;;;;;;0.43;0.10;;;;;;;;;;5049178;28;20029;-55
2021/01/21 05:18:31;;;;;;;1.08;0.47;;;;;;;;;;5050023;28;20036;-56
2021/01/21 05:21:09;;;;;;;0.80;0.38;;;;;;;;;;5050400;28;20036;-57
2021/01/21 05:23:35;;;;;;;0.85;0.32;;;;;;;;;;5032065;28;20067;-56
2021/01/21 05:26:12;;;;;;;0.47;0.25;;;;;;;;;;5032246;28;20021;-56
2021/01/21 05:28:59;;;;;;;0.75;0.30;;;;;;;;;;5049748;28;20107;-57
2021/01/21 05:31:41;;;;;;;;;;;;;;;;;;;;;
2021/01/21 05:34:27;;;;;;;1.08;0.35;;;;;;;;;;5053464;28;20503;-55
2021/01/21 05:37:09;;;;;;;0.75;0.30;;;;;;;;;;5052556;28;20502;-57
2021/01/21 05:39:37;;;;;;;0.63;0.25;;;;;;;;;;5030333;28;20037;-55
2021/01/21 05:42:14;;;;;;;1.08;0.32;;;;;;;;;;5053568;28;20028;-56
2021/01/21 05:48:01;;;;;;;0.32;0.10;;;;;;;;;;5050047;28;20029;-57
2021/01/21 05:50:34;;;;;;;;;;;;;;;;;;5053988;28;20037;-57
2021/01/21 05:53:11;;;;;;;0.77;0.63;;;;;;;;;;5053105;28;19905;-56
2021/01/21 05:56:00;;;;;;;1.35;0.30;;;;;;;;;;5034564;28;20171;-56
2021/01/21 05:58:31;;;;;;;0.73;0.20;;;;;;;;;;5039805;28;20496;-56
2021/01/21 06:01:11;;;;;;;0.38;0.22;;;;;;;;;;5052709;28;20037;-56
2021/01/21 06:03:43;;;;;;;0.83;0.27;;;;;;;;;;5052771;27;20029;-57
2021/01/21 06:09:19;;;;;;;0.28;0.10;;;;;;;;;;5028544;28;20067;-57
2021/01/21 06:11:59;;;;;;;0.50;0.30;;;;;;;;;;5052978;28;20049;-57
2021/01/21 06:14:41;;;;;;;0.45;0.20;;;;;;;;;;5052004;28;20067;-56
2021/01/21 06:17:22;;;;;;;1.10;0.22;;;;;;;;;;5033778;28;20036;-57
2021/01/21 06:20:01;;;;;;;0.55;0.15;;;;;;;;;;5052577;28;20026;-58
2021/01/21 06:22:41;;;;;;;2.92;0.50;;;;;;;;;;5051874;28;20053;-56
2021/01/21 06:28:39;;;;;;;0.63;0.30;;;;;;;;;;5060470;28;20029;-57
2021/01/21 06:31:22;;;;;;;0.30;0.10;;;;;;;;;;5019493;28;20042;-58
2021/01/21 06:33:56;;;;;;;0.70;0.22;;;;;;;;;;5051824;28;20473;-53
2021/01/21 06:36:43;;;;;;;0.82;0.30;;;;;;;;;;5052578;28;20451;-56
2021/01/21 06:42:11;;;;;;;0.50;0.30;;;;;;;;;;5050938;28;20044;-58
2021/01/21 06:44:40;;;;;;;1.10;0.40;;;;;;;;;;5049270;28;20085;-57
2021/01/21 06:47:19;;;;;;;0.40;0.20;;;;;;;;;;5052175;28;20021;-56
2021/01/21 06:49:58;;;;;;;;;;;;;;;;;;;;;
2021/01/21 06:56:09;;;;;;;;;;;;;;;;;;;;;
2021/01/21 07:01:54;;;;;;;0.40;0.20;;;;;;;;;;5051005;28;20044;-57
2021/01/21 07:04:34;;;;;;;1.40;0.60;;;;;;;;;;5050586;27;20053;-58
2021/01/21 07:07:07;;;;;;;0.57;0.28;;;;;;;;;;5052165;28;20037;-57
2021/01/21 07:09:41;;;;;;;1.00;0.50;;;;;;;;;;5048068;28;20033;-56
2021/01/21 07:12:29;;;;;;;1.75;0.52;;;;;;;;;;5026759;28;20033;-55
2021/01/21 07:15:06;;;;;;;1.05;0.38;;;;;;;;;;5051441;28;20033;-56
2021/01/21 07:17:39;;;;;;;0.55;0.30;;;;;;;;;;5033404;28;20037;-58
2021/01/21 07:20:20;;;;;;;1.10;0.47;;;;;;;;;;5051170;28;20032;-57
2021/01/21 07:22:48;;;;;;;0.90;0.32;;;;;;;;;;5050328;28;20072;-56
2021/01/21 07:25:46;;;;;;;1.40;0.60;;;;;;;;;;5051288;28;20057;-57
2021/01/21 07:28:15;;;;;;;0.50;0.20;;;;;;;;;;5052355;28;20056;-56
2021/01/21 07:30:53;;;;;;;0.40;0.20;;;;;;;;;;5050968;28;20400;-57
2021/01/21 07:33:43;;;;;;;1.35;0.32;;;;;;;;;;5033591;28;20041;-58
2021/01/21 07:36:37;;;;;;;0.52;0.30;;;;;;;;;;5051295;28;20029;-56
2021/01/21 07:39:22;;;;;;;0.20;0.10;;;;;;;;;;5101738;27;20045;-56
2021/01/21 07:41:57;;;;;;;0.68;0.30;;;;;;;;;;5051468;28;20347;-58
2021/01/21 07:44:46;;;;;;;0.98;0.40;;;;;;;;;;5051194;28;20453;-56
2021/01/21 07:47:40;;;;;;;2.08;0.73;;;;;;;;;;5050732;28;20461;-56
2021/01/21 07:50:43;;;;;;;;;;;;;;;;;;;;;
2021/01/21 07:53:23;;;;;;;0.50;0.35;;;;;;;;;;5049937;28;20021;-55
2021/01/21 07:56:07;;;;;;;1.52;0.82;;;;;;;;;;5050746;28;20029;-54
2021/01/21 07:58:39;;;;;;;0.55;0.28;;;;;;;;;;5032939;28;20041;-52
2021/01/21 08:01:34;;;;;;;2.22;0.50;;;;;;;;;;5051100;28;20037;-56
2021/01/21 08:04:17;;;;;;;1.00;0.30;;;;;;;;;;5032023;27;20040;-55
2021/01/21 08:07:02;;;;;;;0.75;0.30;;;;;;;;;;5050730;28;20070;-54
2021/01/21 08:09:39;;;;;;;0.68;0.35;;;;;;;;;;5033440;28;20032;-56
2021/01/21 08:12:28;;;;;;;;;;;;;;;;;;;;;
2021/01/21 08:15:14;;;;;;;0.40;0.20;;;;;;;;;;5035573;28;20041;-56
2021/01/21 08:17:44;;;;;;;1.40;0.52;;;;;;;;;;5049810;28;20070;-56
2021/01/21 08:20:15;;;;;;;0.35;0.20;;;;;;;;;;5032958;28;20410;-55
2021/01/21 08:22:47;;;;;;;;;;;;;;;;;;5032903;28;20067;-56
2021/01/21 08:25:19;;;;;;;0.20;0.10;;;;;;;;;;5050091;28;20301;-56
2021/01/21 08:27:45;;;;;;;0.80;0.40;;;;;;;;;;5033985;28;20446;-56
2021/01/21 08:33:33;;;;;;;1.17;0.50;;;;;;;;;;5047418;28;20048;-56
2021/01/21 08:36:05;;;;;;;0.73;0.25;;;;;;;;;;5034442;28;20104;-57
2021/01/21 08:38:36;;;;;;;1.85;0.30;;;;;;;;;;5049781;28;20355;-56
2021/01/21 08:41:30;;;;;;;0.35;0.20;;;;;;;;;;5050312;28;20365;-56
2021/01/21 08:44:00;;;;;;;1.40;0.40;;;;;;;;;;5050348;28;20025;-56
2021/01/21 08:46:35;;;;;;;0.68;0.40;;;;;;;;;;5032146;28;20074;-56
2021/01/21 08:49:11;;;;;;;3.22;0.20;;;;;;;;;;5031798;28;20156;-56
2021/01/21 08:51:41;;;;;;;0.60;0.28;;;;;;;;;;5033559;28;20029;-56
2021/01/21 08:54:20;;;;;;;0.60;0.35;;;;;;;;;;5050746;28;20096;-56
2021/01/21 08:57:05;;;;;;;0.82;0.40;;;;;;;;;;5032761;28;20048;-56
2021/01/21 08:59:43;;;;;;;1.17;0.40;;;;;;;;;;5031599;28;20033;-50
2021/01/21 09:02:10;;;;;;;0.43;0.20;;;;;;;;;;5045251;28;20037;-55
2021/01/21 09:04:40;;;;;;;0.32;0.15;;;;;;;;;;5049491;27;20037;-55
2021/01/21 09:07:26;;;;;;;0.55;0.28;;;;;;;;;;5035434;28;20033;-56
2021/01/21 09:10:00;;;;;;;1.45;0.30;;;;;;;;;;5053931;28;20132;-56
2021/01/21 09:12:33;;;;;;;1.30;0.40;;;;;;;;;;5053898;28;20502;-56
2021/01/21 09:15:10;;;;;;;0.85;0.30;;;;;;;;;;5054401;28;20036;-56
2021/01/21 09:17:37;;;;;;;1.02;0.45;;;;;;;;;;5052848;28;20103;-58
2021/01/21 09:20:27;;;;;;;1.33;0.55;;;;;;;;;;5035299;28;20028;-56
2021/01/21 09:22:56;;;;;;;1.08;0.20;;;;;;;;;;5053417;28;20033;-53
2021/01/21 09:25:27;;;;;;;0.57;0.25;;;;;;;;;;5036154;28;20166;-56
2021/01/21 09:27:54;;;;;;;0.32;0.17;;;;;;;;;;5021038;28;20128;-54
2021/01/21 09:30:22;;;;;;;0.10;0.10;;;;;;;;;;5045906;28;20035;-57
2021/01/21 09:33:02;;;;;;;0.40;0.20;;;;;;;;;;5035043;28;20045;-56
2021/01/21 09:35:35;;;;;;;0.65;0.40;;;;;;;;;;5053707;28;20366;-57
2021/01/21 09:38:13;;;;;;;0.50;0.20;;;;;;;;;;5053017;28;20029;-55
2021/01/21 09:40:45;;;;;;;0.88;0.20;;;;;;;;;;5035035;28;20115;-57
2021/01/21 09:43:15;;;;;;;0.98;0.25;;;;;;;;;;5035855;28;20029;-55
2021/01/21 09:45:57;;;;;;;;;;;;;;;;;;;;;
2021/01/21 09:48:29;;;;;;;0.90;0.40;;;;;;;;;;5054632;28;20504;-56
2021/01/21 09:50:59;;;;;;;0.75;0.32;;;;;;;;;;5034567;28;20142;-54
2021/01/21 09:53:34;;;;;;;0.82;0.25;;;;;;;;;;5051980;28;20029;-56
2021/01/21 09:56:06;;;;;;;0.20;0.10;;;;;;;;;;5047316;28;20029;-55
2021/01/21 09:58:35;;;;;;;1.50;0.60;;;;;;;;;;5052962;28;20086;-55
2021/01/21 10:01:12;;;;;;;1.10;0.65;;;;;;;;;;5052997;28;20041;-56
2021/01/21 10:03:43;;;;;;;0.45;0.20;;;;;;;;;;5035323;28;20037;-57
2021/01/21 10:06:13;;;;;;;0.35;0.13;;;;;;;;;;5052296;28;20073;-54
2021/01/21 10:08:53;;;;;;;0.30;0.20;;;;;;;;;;5020531;28;20461;-57
2021/01/21 10:11:26;;;;;;;0.52;0.25;;;;;;;;;;5053504;28;20025;-55
2021/01/21 10:14:08;;;;;;;0.60;0.38;;;;;;;;;;5035263;28;20025;-56
2021/01/21 10:16:56;;;;;;;1.00;0.32;;;;;;;;;;5033415;28;20121;-56
2021/01/21 10:19:41;;;;;;;0.52;0.30;;;;;;;;;;5034480;28;20029;-56
2021/01/21 10:22:15;;;;;;;3.30;0.40;;;;;;;;;;5052503;28;20029;-56
2021/01/21 10:24:44;;;;;;;0.45;0.20;;;;;;;;;;5049828;28;20057;-57
2021/01/21 10:27:27;;;;;;;1.05;0.40;;;;;;;;;;5034487;28;20064;-56
2021/01/21 10:29:56;;;;;;;0.80;0.20;;;;;;;;;;5035038;28;20093;-55
2021/01/21 10:32:44;;;;;;;1.48;0.52;;;;;;;;;;5122390;27;20029;-57
2021/01/21 10:35:18;;;;;;;1.95;0.77;;;;;;;;;;5034065;28;20029;-57
2021/01/21 10:37:47;;;;;;;0.85;0.22;;;;;;;;;;5051953;28;20021;-57
2021/01/21 10:43:11;;;;;;;0.50;0.30;;;;;;;;;;5051740;28;20040;-57
2021/01/21 10:45:37;;;;;;;0.82;0.45;;;;;;;;;;5035925;28;20053;-57
2021/01/21 10:48:09;;;;;;;0.55;0.30;;;;;;;;;;5052002;28;20025;-57
2021/01/21 10:50:38;;;;;;;0.60;0.30;;;;;;;;;;5035516;28;20104;-57
2021/01/21 10:53:10;;;;;;;0.45;0.22;;;;;;;;;;5034959;28;20367;-56
2021/01/21 10:55:55;;;;;;;0.65;0.40;;;;;;;;;;5052121;28;20025;-56
2021/01/21 10:58:21;;;;;;;0.57;0.30;;;;;;;;;;5034147;28;20040;-56
2021/01/21 11:00:51;;;;;;;0.50;0.20;;;;;;;;;;5034687;28;20041;-57
2021/01/21 11:03:25;;;;;;;0.75;0.35;;;;;;;;;;5052691;28;20086;-56
2021/01/21 11:06:20;;;;;;;1.48;0.65;;;;;;;;;;5031020;28;20182;-56
2021/01/21 11:09:04;;;;;;;;;;;;;;;;;;;;;
2021/01/21 11:11:38;;;;;;;1.60;0.52;;;;;;;;;;5031818;28;20377;-57
2021/01/21 11:14:13;;;;;;;1.38;0.60;;;;;;;;;;5030319;28;20429;-57
2021/01/21 11:16:46;;;;;;;1.10;0.45;;;;;;;;;;5031773;28;20029;-57
2021/01/21 11:19:20;;;;;;;0.60;0.43;;;;;;;;;;5031589;28;20428;-57
2021/01/21 11:21:54;;;;;;;0.93;0.40;;;;;;;;;;5031743;28;20045;-57
2021/01/21 11:24:23;;;;;;;0.98;0.30;;;;;;;;;;5031147;28;20117;-55
2021/01/21 11:27:03;;;;;;;0.40;0.20;;;;;;;;;;5031250;28;20120;-58
2021/01/21 11:29:35;;;;;;;0.57;0.25;;;;;;;;;;5032204;28;20117;-58
2021/01/21 11:32:10;;;;;;;2.38;0.32;;;;;;;;;;5031861;28;20026;-57
2021/01/21 11:34:39;;;;;;;0.73;0.30;;;;;;;;;;5029953;28;20079;-57
2021/01/21 11:37:08;;;;;;;0.45;0.17;;;;;;;;;;5031045;28;20025;-58
2021/01/21 11:39:42;;;;;;;0.68;0.32;;;;;;;;;;5031270;28;20463;-57
2021/01/21 11:42:12;;;;;;;0.50;0.30;;;;;;;;;;5031855;28;20474;-56
2021/01/21 11:44:43;;;;;;;0.75;0.38;;;;;;;;;;5031108;28;20018;-57
2021/01/21 11:49:58;;;;;;;0.40;0.20;;;;;;;;;;5031979;28;20105;-58
2021/01/21 11:52:45;;;;;;;1.10;0.30;;;;;;;;;;5031970;28;20056;-56
2021/01/21 11:55:12;;;;;;;0.35;0.20;;;;;;;;;;5030367;28;20032;-57
2021/01/21 11:57:44;;;;;;;1.60;0.65;;;;;;;;;;5031821;28;20029;-54
2021/01/21 12:00:14;;;;;;;1.80;1.10;;;;;;;;;;5031511;28;20530;-55
2021/01/21 12:02:44;;;;;;;2.40;0.98;;;;;;;;;;5030466;28;20026;-57
2021/01/21 12:05:10;;;;;;;4.57;0.52;;;;;;;;;;5036555;27;20049;-58
2021/01/21 12:08:02;;;;;;;0.95;0.65;;;;;;;;;;5033057;28;20420;-57
2021/01/21 12:10:39;;;;;;;0.90;0.30;;;;;;;;;;5050665;28;20036;-57
2021/01/21 12:13:17;;;;;;;1.35;0.63;;;;;;;;;;5033675;28;20036;-57
2021/01/21 12:15:44;;;;;;;0.43;0.20;;;;;;;;;;5050934;28;20027;-55
2021/01/21 12:18:21;;;;;;;0.38;0.28;;;;;;;;;;5050815;28;20036;-56
2021/01/21 12:20:50;;;;;;;1.40;0.35;;;;;;;;;;5033395;28;20374;-57
2021/01/21 12:23:18;;;;;;;1.13;0.68;;;;;;;;;;5050903;28;20044;-57
2021/01/21 12:25:52;;;;;;;0.30;0.20;;;;;;;;;;5033570;28;20161;-57
2021/01/21 12:28:28;;;;;;;0.52;0.30;;;;;;;;;;5032772;28;20029;-57
2021/01/21 12:30:54;;;;;;;0.60;0.30;;;;;;;;;;5032849;28;20044;-56
2021/01/21 12:33:25;;;;;;;0.77;0.30;;;;;;;;;;5051538;28;20060;-56
2021/01/21 12:35:53;;;;;;;0.73;0.32;;;;;;;;;;5032804;28;20436;-56
2021/01/21 12:38:25;;;;;;;1.38;0.50;;;;;;;;;;5032502;28;20033;-56
2021/01/21 12:41:06;;;;;;;0.10;0.10;;;;;;;;;;5019763;28;20029;-54
2021/01/21 12:43:38;;;;;;;2.72;0.75;;;;;;;;;;5054212;28;20032;-57
2021/01/21 12:46:09;;;;;;;0.95;0.50;;;;;;;;;;5054534;28;20105;-57
2021/01/21 12:48:41;;;;;;;0.28;0.05;;;;;;;;;;5054165;28;20078;-54
2021/01/21 12:51:12;;;;;;;0.70;0.30;;;;;;;;;;5036426;28;20415;-55
2021/01/21 12:53:49;;;;;;;1.40;0.50;;;;;;;;;;5053342;28;20033;-57
2021/01/21 12:56:18;;;;;;;0.93;0.50;;;;;;;;;;5036093;28;20025;-57
2021/01/21 12:58:44;;;;;;;0.28;0.13;;;;;;;;;;5053828;28;20466;-56
2021/01/21 13:01:11;;;;;;;1.67;0.93;;;;;;;;;;5053749;28;20021;-57
2021/01/21 13:03:40;;;;;;;1.17;0.40;;;;;;;;;;5054174;28;20189;-57
2021/01/21 13:06:13;;;;;;;0.50;0.30;;;;;;;;;;5053985;28;20084;-57
2021/01/21 13:09:02;;;;;;;0.73;0.28;;;;;;;;;;5054025;28;20029;-57
2021/01/21 13:11:30;;;;;;;0.10;0.00;;;;;;;;;;5054013;28;20068;-56
2021/01/21 13:14:02;;;;;;;0.88;0.35;;;;;;;;;;5054139;28;20029;-57
2021/01/21 13:16:32;;;;;;;0.70;0.30;;;;;;;;;;5053573;28;20059;-57
2021/01/21 13:18:58;;;;;;;0.82;0.35;;;;;;;;;;5053843;28;20033;-56
2021/01/21 13:21:43;;;;;;;0.65;0.30;;;;;;;;;;5053683;28;20029;-56
2021/01/21 13:24:12;;;;;;;1.35;0.68;;;;;;;;;;5053791;28;20036;-56
2021/01/21 13:26:47;;;;;;;0.80;0.40;;;;;;;;;;5053420;28;20132;-56
2021/01/21 13:29:21;;;;;;;1.15;0.40;;;;;;;;;;5053525;28;20029;-56
2021/01/21 13:31:51;;;;;;;3.47;0.55;;;;;;;;;;5054050;28;20081;-54
2021/01/21 13:34:33;;;;;;;1.38;0.30;;;;;;;;;;5053369;28;20025;-55
2021/01/21 13:37:02;;;;;;;1.13;0.22;;;;;;;;;;5053673;28;20044;-56
2021/01/21 13:39:33;;;;;;;0.57;0.30;;;;;;;;;;5035156;28;20060;-57
2021/01/21 13:42:14;;;;;;;0.80;0.30;;;;;;;;;;5036577;28;20028;-56
2021/01/21 13:44:49;;;;;;;1.73;0.45;;;;;;;;;;5053792;28;20021;-55
2021/01/21 13:47:30;;;;;;;1.02;0.38;;;;;;;;;;5035085;28;20037;-57
2021/01/21 13:50:11;;;;;;;1.48;0.52;;;;;;;;;;5036928;28;20037;-56
2021/01/21 13:52:49;;;;;;;0.73;0.40;;;;;;;;;;5050429;28;20029;-57
2021/01/21 13:55:19;;;;;;;0.28;0.15;;;;;;;;;;5053055;28;20032;-57
2021/01/21 13:57:49;;;;;;;0.63;0.20;;;;;;;;;;5035099;28;20029;-56
2021/01/21 14:00:16;;;;;;;1.15;0.47;;;;;;;;;;5053376;28;20025;-57
2021/01/21 14:02:45;;;;;;;2.45;0.77;;;;;;;;;;5052667;28;20040;-57
2021/01/21 14:05:13;;;;;;;2.55;0.25;;;;;;;;;;5052695;27;20498;-57
2021/01/21 14:07:44;;;;;;;2.45;0.68;;;;;;;;;;5052894;28;20073;-56
2021/01/21 14:10:16;;;;;;;0.80;0.40;;;;;;;;;;5048392;28;20470;-57
2021/01/21 14:12:48;;;;;;;1.00;0.40;;;;;;;;;;5053073;28;20018;-58
2021/01/21 14:15:23;;;;;;;0.43;0.20;;;;;;;;;;5052394;28;20478;-57
2021/01/21 14:17:55;;;;;;;1.02;0.32;;;;;;;;;;5036214;28;20044;-56
2021/01/21 14:20:23;;;;;;;1.33;0.30;;;;;;;;;;5052370;28;20036;-57
2021/01/21 14:22:55;;;;;;;0.30;0.13;;;;;;;;;;5052222;28;20055;-58
2021/01/21 14:25:34;;;;;;;;;;;;;;;;;;;;;
2021/01/21 14:28:10;;;;;;;1.15;0.50;;;;;;;;;;5053992;28;20039;-57
2021/01/21 14:30:43;;;;;;;0.30;0.15;;;;;;;;;;5053137;28;20025;-57
2021/01/21 14:33:12;;;;;;;0.32;0.15;;;;;;;;;;5035021;28;20021;-58
2021/01/21 14:35:38;;;;;;;0.55;0.30;;;;;;;;;;5052343;28;20021;-57
2021/01/21 14:38:07;;;;;;;0.57;0.40;;;;;;;;;;5052553;28;20082;-57
2021/01/21 14:40:36;;;;;;;1.35;0.45;;;;;;;;;;5052409;28;20029;-55
2021/01/21 14:43:05;;;;;;;0.73;0.28;;;;;;;;;;5035345;28;20488;-55
2021/01/21 14:45:34;;;;;;;0.57;0.28;;;;;;;;;;5036065;28;20082;-57
2021/01/21 14:48:12;;;;;;;0.32;0.13;;;;;;;;;;5052404;28;20029;-57
2021/01/21 14:50:43;;;;;;;0.38;0.17;;;;;;;;;;5052123;28;20045;-56
2021/01/21 14:53:12;;;;;;;0.55;0.22;;;;;;;;;;5052182;28;20033;-55
2021/01/21 14:55:47;;;;;;;0.50;0.20;;;;;;;;;;5052051;28;20359;-57
2021/01/21 14:58:13;;;;;;;1.02;0.28;;;;;;;;;;5052381;28;20036;-56
2021/01/21 15:00:47;;;;;;;0.68;0.35;;;;;;;;;;5052262;28;20066;-56
2021/01/21 15:03:13;;;;;;;0.70;0.20;;;;;;;;;;5051144;28;20459;-56
2021/01/21 15:05:41;;;;;;;3.53;0.57;;;;;;;;;;5051722;27;20061;-57
2021/01/21 15:08:17;;;;;;;0.45;0.20;;;;;;;;;;5051787;28;20480;-55
2021/01/21 15:10:45;;;;;;;1.00;0.35;;;;;;;;;;5051922;28;20157;-56
2021/01/21 15:13:11;;;;;;;1.17;0.60;;;;;;;;;;5051789;28;20021;-55
2021/01/21 15:15:43;;;;;;;0.50;0.20;;;;;;;;;;5052413;28;20370;-57
2021/01/21 15:18:14;;;;;;;1.27;0.50;;;;;;;;;;5051414;28;20077;-55
2021/01/21 15:20:44;;;;;;;0.65;0.32;;;;;;;;;;5034301;28;20056;-57
2021/01/21 15:23:34;;;;;;;1.23;0.47;;;;;;;;;;5051687;28;20021;-56
2021/01/21 15:26:07;;;;;;;0.63;0.30;;;;;;;;;;5052406;28;20025;-57
2021/01/21 15:28:51;;;;;;;0.55;0.22;;;;;;;;;;5051419;28;20026;-57
2021/01/21 15:31:32;;;;;;;0.35;0.17;;;;;;;;;;5051643;28;20021;-57
2021/01/21 15:34:01;;;;;;;;;;;;;;;;;;5035723;28;20085;-56
2021/01/21 15:36:43;;;;;;;0.90;0.50;;;;;;;;;;5051185;28;19909;-57
2021/01/21 15:39:16;;;;;;;0.57;0.30;;;;;;;;;;5051309;28;20029;-56
2021/01/21 15:41:42;;;;;;;0.85;0.40;;;;;;;;;;5052036;28;20025;-57
2021/01/21 15:44:08;;;;;;;5.70;0.80;;;;;;;;;;5050696;28;20061;-57
2021/01/21 15:46:40;;;;;;;0.85;0.47;;;;;;;;;;5051545;28;20025;-57
2021/01/21 15:49:09;;;;;;;0.75;0.38;;;;;;;;;;5033482;28;20061;-54
2021/01/21 15:51:43;;;;;;;1.38;0.40;;;;;;;;;;5051337;28;20462;-56
2021/01/21 15:54:14;;;;;;;1.20;0.40;;;;;;;;;;5050070;28;20119;-55
2021/01/21 15:56:43;;;;;;;1.02;0.50;;;;;;;;;;5032972;28;20021;-55
2021/01/21 15:59:18;;;;;;;2.30;0.80;;;;;;;;;;5050819;28;20028;-58
2021/01/21 16:01:52;;;;;;;1.13;0.57;;;;;;;;;;5051166;28;20032;-57
2021/01/21 16:04:23;;;;;;;0.68;0.32;;;;;;;;;;5051327;28;20025;-58
2021/01/21 16:06:53;;;;;;;1.48;0.57;;;;;;;;;;5027920;28;20081;-56
2021/01/21 16:09:22;;;;;;;0.98;0.45;;;;;;;;;;5031175;28;20053;-57
2021/01/21 16:11:48;;;;;;;0.52;0.20;;;;;;;;;;5031883;28;20021;-57
2021/01/21 16:14:14;;;;;;;2.22;0.65;;;;;;;;;;5029393;28;20040;-57
2021/01/21 16:16:49;;;;;;;0.50;0.28;;;;;;;;;;5029068;28;20033;-57
2021/01/21 16:19:25;;;;;;;1.27;0.45;;;;;;;;;;5031625;28;20422;-56
2021/01/21 16:21:51;;;;;;;1.23;0.60;;;;;;;;;;5031164;28;20061;-57
2021/01/21 16:24:28;;;;;;;0.68;0.22;;;;;;;;;;5030372;28;20033;-57
2021/01/21 16:26:57;;;;;;;1.17;0.40;;;;;;;;;;5031531;28;20100;-55
2021/01/21 16:29:29;;;;;;;0.90;0.40;;;;;;;;;;5031637;28;20112;-57
2021/01/21 16:31:58;;;;;;;0.52;0.25;;;;;;;;;;5031787;28;20033;-55
2021/01/21 16:34:36;;;;;;;0.32;0.20;;;;;;;;;;5030915;28;20055;-57
2021/01/21 16:39:58;;;;;;;1.52;0.60;;;;;;;;;;5030441;28;20465;-57
2021/01/21 16:42:31;;;;;;;3.40;0.93;;;;;;;;;;5031347;28;20026;-57
2021/01/21 16:44:59;;;;;;;0.63;0.40;;;;;;;;;;5031559;28;20021;-56
2021/01/21 16:47:25;;;;;;;0.93;0.63;;;;;;;;;;5030700;28;20093;-57
2021/01/21 16:50:17;;;;;;;1.08;0.45;;;;;;;;;;5030253;28;20029;-57
2021/01/21 16:52:43;;;;;;;0.63;0.25;;;;;;;;;;5031074;28;20049;-57
2021/01/21 16:55:39;;;;;;;0.90;0.40;;;;;;;;;;5030836;28;20062;-55
2021/01/21 16:58:06;;;;;;;1.80;0.85;;;;;;;;;;5029079;28;20029;-57
2021/01/21 17:00:47;;;;;;;0.60;0.30;;;;;;;;;;5028396;28;20037;-57
2021/01/21 17:03:26;;;;;;;;;;;;;;;;;;;;;
2021/01/21 17:05:54;;;;;;;0.90;0.50;;;;;;;;;;5034535;27;20066;-56
2021/01/21 17:08:26;;;;;;;1.48;0.60;;;;;;;;;;5032396;28;20486;-56
2021/01/21 17:11:07;;;;;;;1.45;0.73;;;;;;;;;;5053147;28;20474;-56
2021/01/21 17:16:24;;;;;;;0.90;0.40;;;;;;;;;;5050190;28;19915;-55
2021/01/21 17:19:12;;;;;;;1.88;1.02;;;;;;;;;;5033286;28;20082;-55